M I D A S
Marine Information and Data Acquisition System
Tripno 965 of the Zeeleeuw from 2005-10-03 08:26:36 to 2005-10-03 16:56:54
Back to CruiseResearch ActivitiesStationsMapUnderway DataData graphs

EquipmentUnitsComment
TimeDGPSUTC
LatitudeDGPSDM.mWGS84
LongitudeDGPSDM.mWGS84
HeadingGyrodeg 
SOGDGPSknotsSpeed over ground
COGDGPSdegCourse over ground
DepthEcho soundermeters200 kHz
Missing or incorrect values are displayed as -999
Navigation data collected by the RV Zeeleeuw from 2005-10-03 08:24:20 to 2005-10-03 16:57:11
                                                                                    Next 1000 lines
Time Latitude Longitude Heading SOG COG Depth
2005-10-03 08:24:30 51°13.602 2°56.095 113.9 1.1 294 6
2005-10-03 08:24:34 51°13.603 2°56.093 114 1.3 298 6.1
2005-10-03 08:24:40 51°13.604 2°56.089 114.2 1.5 295 6.3
2005-10-03 08:24:45 51°13.605 2°56.085 114.3 1.8 296 -999
2005-10-03 08:24:50 51°13.606 2°56.081 114.3 2 295 -999
2005-10-03 08:24:55 51°13.608 2°56.076 114.3 2.2 295 -999
2005-10-03 08:25:01 51°13.609 2°56.071 114.4 2.3 293 -999
2005-10-03 08:25:05 51°13.61 2°56.067 114.6 2.4 295 -999
2005-10-03 08:25:10 51°13.612 2°56.062 114.6 2.5 294 -999
2005-10-03 08:25:15 51°13.613 2°56.056 114.6 2.6 296 -999
2005-10-03 08:25:20 51°13.615 2°56.051 114.6 2.7 294 -999
2005-10-03 08:25:25 51°13.616 2°56.045 114.3 2.8 294 -999
2005-10-03 08:25:30 51°13.618 2°56.039 113.6 2.9 292 -999
2005-10-03 08:25:35 51°13.619 2°56.033 113.1 3.1 291 -999
2005-10-03 08:25:40 51°13.621 2°56.026 112.6 3.1 289 -999
2005-10-03 08:25:46 51°13.622 2°56.018 112.2 3.2 289 -999
2005-10-03 08:25:50 51°13.623 2°56.012 112.2 3.3 287 -999
2005-10-03 08:25:55 51°13.625 2°56.005 112.4 3.4 288 -999
2005-10-03 08:26:00 51°13.626 2°55.998 113.1 3.5 287 -999
2005-10-03 08:26:05 51°13.628 2°55.99 114 3.6 287 -999
2005-10-03 08:26:10 51°13.629 2°55.983 115.4 3.6 289 -999
2005-10-03 08:26:15 51°13.631 2°55.975 117.2 3.7 290 -999
2005-10-03 08:26:20 51°13.633 2°55.967 119.1 3.8 291 -999
2005-10-03 08:26:25 51°13.635 2°55.959 120.6 3.9 295 -999
2005-10-03 08:26:30 51°13.638 2°55.951 122.5 4 296 -999
2005-10-03 08:26:35 51°13.641 2°55.943 124 4 298 -999
2005-10-03 08:26:41 51°13.644 2°55.934 124.8 4.1 298 -999
2005-10-03 08:26:45 51°13.646 2°55.927 125.6 4.1 301 -999
2005-10-03 08:26:50 51°13.649 2°55.919 126.2 4.2 301 -999
2005-10-03 08:26:56 51°13.653 2°55.91 126.6 4.2 302 -999
2005-10-03 08:27:00 51°13.656 2°55.903 126.8 4.2 302 -999
2005-10-03 08:27:05 51°13.659 2°55.895 126.8 4.3 303 -999
2005-10-03 08:27:10 51°13.662 2°55.887 126.5 4.3 303 -999
2005-10-03 08:27:15 51°13.665 2°55.879 126.2 4.3 302 -999
2005-10-03 08:27:21 51°13.669 2°55.869 125.7 4.4 302 -999
2005-10-03 08:27:25 51°13.672 2°55.863 125.4 4.4 302 -999
2005-10-03 08:27:30 51°13.675 2°55.854 124.8 4.4 302 -999
2005-10-03 08:27:35 51°13.678 2°55.846 124 4.4 301 -999
2005-10-03 08:27:41 51°13.682 2°55.836 123.1 4.4 301 -999
2005-10-03 08:27:46 51°13.685 2°55.828 122.2 4.4 300 -999
2005-10-03 08:27:50 51°13.687 2°55.821 121.2 4.4 299 -999
2005-10-03 08:27:55 51°13.69 2°55.812 120.2 4.4 297 -999
2005-10-03 08:28:00 51°13.693 2°55.804 118.6 4.4 296 -999
2005-10-03 08:28:05 51°13.695 2°55.795 117.2 4.4 295 -999
2005-10-03 08:28:10 51°13.698 2°55.787 115.7 4.2 294 -999
2005-10-03 08:28:15 51°13.7 2°55.778 114.4 4.1 293 -999
2005-10-03 08:28:20 51°13.702 2°55.77 113.2 4 293 -999
2005-10-03 08:28:26 51°13.704 2°55.761 111.9 3.7 291 -999
2005-10-03 08:28:30 51°13.705 2°55.756 111 3.4 291 13.3
2005-10-03 08:28:35 51°13.706 2°55.751 109.6 2.8 289 13.6
2005-10-03 08:28:40 51°13.707 2°55.748 106.6 1.7 291 13.4
2005-10-03 08:28:45 51°13.707 2°55.747 103.2 1.4 294 13
2005-10-03 08:28:50 51°13.708 2°55.747 99.3 0.4 10 13
2005-10-03 08:28:54 51°13.708 2°55.749 91.8 0.8 60 13.1
2005-10-03 08:29:00 51°13.709 2°55.753 84 1.3 71 13.1
2005-10-03 08:29:05 51°13.71 2°55.755 77.9 1.4 61 13
2005-10-03 08:29:10 51°13.71 2°55.755 72.6 0.5 68 12.8
2005-10-03 08:29:14 51°13.71 2°55.755 68.8 0.1 293 12.9
2005-10-03 08:29:20 51°13.709 2°55.752 65.2 0.8 247 13
2005-10-03 08:29:25 51°13.709 2°55.749 63.1 1.5 242 13
2005-10-03 08:29:30 51°13.707 2°55.746 61 1.7 239 12.9
2005-10-03 08:29:35 51°13.706 2°55.742 59.7 2 237 -999
2005-10-03 08:29:41 51°13.704 2°55.738 58.3 2 239 -999
2005-10-03 08:29:46 51°13.703 2°55.734 57.6 1.7 239 -999
2005-10-03 08:29:50 51°13.702 2°55.733 56.6 1.2 239 -999
2005-10-03 08:29:54 51°13.702 2°55.733 54.5 0.4 243 13.7
2005-10-03 08:30:00 51°13.703 2°55.733 50.8 0.3 255 13.3
2005-10-03 08:30:06 51°13.705 2°55.735 45 0.5 23 -999
2005-10-03 08:30:10 51°13.707 2°55.736 36.6 1.8 26 -999
2005-10-03 08:30:15 51°13.71 2°55.738 28.6 2.3 18 -999
2005-10-03 08:30:20 51°13.714 2°55.739 20.3 2.6 12 -999
2005-10-03 08:30:25 51°13.718 2°55.739 11.4 3.2 -999 -999
2005-10-03 08:30:30 51°13.723 2°55.737 0.1 3.6 350 -999
2005-10-03 08:30:35 51°13.728 2°55.734 352.5 3.9 347 10.2
2005-10-03 08:30:40 51°13.733 2°55.73 345.4 4 336 9.7
2005-10-03 08:30:45 51°13.738 2°55.726 340.5 4 335 9.2
2005-10-03 08:30:50 51°13.743 2°55.721 335.6 4.3 330 8.8
2005-10-03 08:30:55 51°13.749 2°55.715 333.8 4.6 329 9.3
2005-10-03 08:31:00 51°13.755 2°55.709 332.9 5.1 327 8.9
2005-10-03 08:31:05 51°13.762 2°55.703 332.7 5.3 328 8.6
2005-10-03 08:31:10 51°13.769 2°55.695 332.1 5.9 326 8.5
2005-10-03 08:31:14 51°13.775 2°55.689 331.6 6.1 326 8.4
2005-10-03 08:31:20 51°13.784 2°55.68 331.6 6.4 327 8.6
2005-10-03 08:31:25 51°13.792 2°55.672 331.7 6.5 327 8.9
2005-10-03 08:31:30 51°13.8 2°55.664 332.6 6.9 329 9.1
2005-10-03 08:31:35 51°13.809 2°55.656 333.8 7.1 330 9.5
2005-10-03 08:31:40 51°13.818 2°55.648 335.1 7.1 331 9.9
2005-10-03 08:31:45 51°13.827 2°55.641 335.8 7.3 332 9.9
2005-10-03 08:31:50 51°13.836 2°55.633 336.7 7.6 333 9.8
2005-10-03 08:31:54 51°13.844 2°55.627 337.4 7.8 333 9.9
2005-10-03 08:32:00 51°13.856 2°55.617 337.9 7.8 333 9.7
2005-10-03 08:32:04 51°13.864 2°55.611 338.3 8 335 9.4
2005-10-03 08:32:10 51°13.876 2°55.602 338.6 8 335 9.5
2005-10-03 08:32:15 51°13.886 2°55.594 338.7 8.2 334 9.9
2005-10-03 08:32:20 51°13.896 2°55.586 338.9 8.3 334 9.3
2005-10-03 08:32:25 51°13.907 2°55.578 338.9 8.3 334 9.2
2005-10-03 08:32:30 51°13.917 2°55.569 338.9 8.4 334 9.7
2005-10-03 08:32:34 51°13.926 2°55.563 338.9 8.4 333 9.8
2005-10-03 08:32:40 51°13.938 2°55.553 339.9 8.4 334 9.6
2005-10-03 08:32:45 51°13.949 2°55.545 340.3 8.5 335 9.5
2005-10-03 08:32:50 51°13.96 2°55.538 340.5 8.5 336 9.6
2005-10-03 08:32:54 51°13.969 2°55.532 341.2 8.6 336 9.4
2005-10-03 08:33:00 51°13.982 2°55.523 341.8 8.6 337 9.7
2005-10-03 08:33:04 51°13.991 2°55.517 341.6 8.6 336 10.1
2005-10-03 08:33:10 51°14.004 2°55.508 341.5 8.6 337 10.1
2005-10-03 08:33:14 51°14.013 2°55.501 341.5 8.7 336 10.2
2005-10-03 08:33:20 51°14.026 2°55.492 341.6 8.7 337 10.1
2005-10-03 08:33:25 51°14.037 2°55.484 341.5 8.8 337 10.2
2005-10-03 08:33:30 51°14.048 2°55.477 341.3 8.9 336 9.8
2005-10-03 08:33:34 51°14.058 2°55.47 341.1 8.9 336 9.7
2005-10-03 08:33:40 51°14.071 2°55.46 340.9 9.1 335 10.2
2005-10-03 08:33:45 51°14.083 2°55.451 340.4 9.2 335 10.2
2005-10-03 08:33:50 51°14.095 2°55.442 340.3 9.3 334 10
2005-10-03 08:33:54 51°14.104 2°55.435 340.3 9.5 335 10.2
2005-10-03 08:34:00 51°14.119 2°55.424 339.9 9.6 334 10.2
2005-10-03 08:34:05 51°14.131 2°55.414 339.5 9.8 334 10.1
2005-10-03 08:34:10 51°14.143 2°55.404 338.2 9.8 334 10.2
2005-10-03 08:34:14 51°14.153 2°55.395 337.3 9.9 332 10.2
2005-10-03 08:34:20 51°14.167 2°55.382 336.6 9.9 331 10.1
2005-10-03 08:34:25 51°14.179 2°55.371 335.4 9.9 329 10.2
2005-10-03 08:34:30 51°14.19 2°55.359 333.8 9.9 329 10.1
2005-10-03 08:34:34 51°14.199 2°55.349 331.6 10 325 10.1
2005-10-03 08:34:40 51°14.213 2°55.333 330.3 10 325 10.1
2005-10-03 08:34:44 51°14.221 2°55.322 329.1 10 322 10.1
2005-10-03 08:34:50 51°14.234 2°55.305 326.9 10 322 10.1
2005-10-03 08:34:54 51°14.242 2°55.293 324.3 10 317 -999
2005-10-03 08:35:00 51°14.254 2°55.274 321.5 10 316 10.4
2005-10-03 08:35:04 51°14.261 2°55.261 319.1 10.1 313 10.5
2005-10-03 08:35:10 51°14.272 2°55.241 317.9 10.1 312 9.9
2005-10-03 08:35:15 51°14.282 2°55.223 316.4 10.2 311 9.9
2005-10-03 08:35:20 51°14.29 2°55.205 314.2 10.3 308 10.4
2005-10-03 08:35:25 51°14.3 2°55.187 313.3 10.5 308 10.2
2005-10-03 08:35:30 51°14.308 2°55.168 312.8 10.7 307 10.4
2005-10-03 08:35:34 51°14.316 2°55.153 313.1 10.7 308 10.4
2005-10-03 08:35:40 51°14.327 2°55.131 313.2 10.8 308 10
2005-10-03 08:35:44 51°14.334 2°55.115 312.7 11 308 10.2
2005-10-03 08:35:50 51°14.345 2°55.092 312.8 11 308 10.2
2005-10-03 08:35:55 51°14.355 2°55.072 313 11 308 10.3
2005-10-03 08:36:00 51°14.364 2°55.053 313.2 11 308 10.3
2005-10-03 08:36:05 51°14.374 2°55.034 313.9 11.1 309 10.3
2005-10-03 08:36:10 51°14.384 2°55.015 314.9 11.2 309 10.2
2005-10-03 08:36:14 51°14.392 2°55 316.4 11.3 312 10.2
2005-10-03 08:36:20 51°14.404 2°54.978 316.5 11.4 310 10.5
2005-10-03 08:36:25 51°14.416 2°54.96 319.3 11.2 316 10
2005-10-03 08:36:30 51°14.428 2°54.944 323.3 11.3 318 10.1
2005-10-03 08:36:34 51°14.438 2°54.931 326.4 11.4 320 10.1
2005-10-03 08:36:40 51°14.452 2°54.913 328.6 11.4 321 9.8
2005-10-03 08:36:45 51°14.465 2°54.898 330.4 11.3 323 9.8
2005-10-03 08:36:50 51°14.478 2°54.883 331.8 11.3 323 9.7
2005-10-03 08:36:54 51°14.488 2°54.87 332.5 11.6 323 9.6
2005-10-03 08:37:00 51°14.504 2°54.851 332.7 11.6 323 9.6
2005-10-03 08:37:05 51°14.517 2°54.836 333.6 11.6 324 9.6
2005-10-03 08:37:10 51°14.53 2°54.822 334.5 11.7 324 9.5
2005-10-03 08:37:14 51°14.541 2°54.81 336 11.7 326 9.4
2005-10-03 08:37:20 51°14.558 2°54.794 337.7 11.8 328 9.5
2005-10-03 08:37:24 51°14.569 2°54.783 339.2 11.9 329 9.5
2005-10-03 08:37:30 51°14.587 2°54.766 339.9 11.9 329 9.3
2005-10-03 08:37:34 51°14.598 2°54.756 340.6 12 330 9.4
2005-10-03 08:37:40 51°14.616 2°54.741 341.4 12.2 331 9.3
2005-10-03 08:37:44 51°14.628 2°54.731 341.8 12.2 332 9.2
2005-10-03 08:37:50 51°14.647 2°54.716 342.3 12.2 333 9.2
2005-10-03 08:37:55 51°14.662 2°54.704 342.9 12.3 333 9.3
2005-10-03 08:38:00 51°14.677 2°54.691 343 12.3 333 9.2
2005-10-03 08:38:05 51°14.692 2°54.678 342.6 12.4 333 9.2
2005-10-03 08:38:10 51°14.707 2°54.665 342 12.5 331 9.1
2005-10-03 08:38:14 51°14.72 2°54.654 341.3 12.5 331 9.2
2005-10-03 08:38:20 51°14.737 2°54.638 340.6 12.6 330 9.1
2005-10-03 08:38:25 51°14.753 2°54.625 340.4 12.5 330 9
2005-10-03 08:38:30 51°14.769 2°54.612 341.8 12.6 333 9
2005-10-03 08:38:35 51°14.784 2°54.601 343.4 12.6 335 8.9
2005-10-03 08:38:40 51°14.8 2°54.59 344.8 12.6 336 8.9
2005-10-03 08:38:45 51°14.816 2°54.579 345.5 12.6 336 8.9
2005-10-03 08:38:50 51°14.832 2°54.567 346.2 12.6 336 8.9
2005-10-03 08:38:54 51°14.845 2°54.558 346.4 12.6 336 8.8
2005-10-03 08:39:00 51°14.864 2°54.545 346.6 12.6 336 8.6
2005-10-03 08:39:05 51°14.88 2°54.534 346.8 12.5 337 8.6
2005-10-03 08:39:10 51°14.896 2°54.523 346.7 12.5 336 8.6
2005-10-03 08:39:14 51°14.909 2°54.514 346.7 12.5 337 8.6
2005-10-03 08:39:20 51°14.927 2°54.502 347 12.4 338 8.5
2005-10-03 08:39:25 51°14.944 2°54.492 347.2 12.5 338 8.5
2005-10-03 08:39:30 51°14.96 2°54.482 348.3 12.4 338 8.5
2005-10-03 08:39:34 51°14.973 2°54.474 349.4 12.5 340 8.3
2005-10-03 08:39:40 51°14.993 2°54.464 350.2 12.4 341 8.3
2005-10-03 08:39:44 51°15.006 2°54.457 351 12.4 341 8.3
2005-10-03 08:39:50 51°15.025 2°54.446 351.6 12.4 342 8.2
2005-10-03 08:39:55 51°15.041 2°54.437 351.8 12.3 341 8.1
2005-10-03 08:40:00 51°15.057 2°54.428 351.7 12.3 341 8
2005-10-03 08:40:05 51°15.073 2°54.419 351.1 12.3 340 8.1
2005-10-03 08:40:10 51°15.089 2°54.408 350.5 12.3 339 8.1
2005-10-03 08:40:14 51°15.102 2°54.4 349.7 12.4 338 8.1
2005-10-03 08:40:20 51°15.121 2°54.387 348.9 12.3 337 8.1
2005-10-03 08:40:25 51°15.136 2°54.376 347.8 12.3 336 8.1
2005-10-03 08:40:30 51°15.151 2°54.365 347.5 12.3 336 8.1
2005-10-03 08:40:34 51°15.164 2°54.356 347.1 12.3 335 8.1
2005-10-03 08:40:40 51°15.183 2°54.343 347.7 12.3 337 8.2
2005-10-03 08:40:45 51°15.198 2°54.333 348.6 12.3 338 8.2
2005-10-03 08:40:50 51°15.215 2°54.323 349.7 12.3 339 8.3
2005-10-03 08:40:54 51°15.228 2°54.315 350.8 12.4 340 8.4
2005-10-03 08:41:00 51°15.247 2°54.305 351.6 12.4 340 8.4
2005-10-03 08:41:05 51°15.263 2°54.295 352 12.4 340 8.4
2005-10-03 08:41:10 51°15.279 2°54.285 351.9 12.3 340 8.5
2005-10-03 08:41:14 51°15.292 2°54.278 352 12.4 340 8.6
2005-10-03 08:41:20 51°15.311 2°54.268 352 12.4 340 8.6
2005-10-03 08:41:25 51°15.328 2°54.258 352.4 12.4 340 8.8
2005-10-03 08:41:30 51°15.343 2°54.25 352.3 12.4 341 8.8
2005-10-03 08:41:34 51°15.357 2°54.243 352 12.4 340 8.8
2005-10-03 08:41:40 51°15.376 2°54.23 351.1 12.4 340 8.9
2005-10-03 08:41:45 51°15.393 2°54.22 350.5 12.5 339 9
2005-10-03 08:41:50 51°15.409 2°54.209 349.8 12.5 338 9
2005-10-03 08:41:54 51°15.421 2°54.201 349.3 12.5 337 9.1
2005-10-03 08:42:00 51°15.44 2°54.188 348.9 12.6 337 9.2
2005-10-03 08:42:05 51°15.457 2°54.177 348.4 12.5 337 9.2
2005-10-03 08:42:10 51°15.473 2°54.166 348.3 12.5 338 9.3
2005-10-03 08:42:15 51°15.489 2°54.156 348.5 12.6 338 9.5
2005-10-03 08:42:20 51°15.505 2°54.146 349.2 12.6 338 9.4
2005-10-03 08:42:25 51°15.521 2°54.137 349.9 12.6 340 9.5
2005-10-03 08:42:30 51°15.538 2°54.127 350.3 12.6 339 9.6
2005-10-03 08:42:34 51°15.551 2°54.119 350.5 12.6 339 9.7
2005-10-03 08:42:40 51°15.571 2°54.107 350.2 12.5 339 9.7
2005-10-03 08:42:44 51°15.584 2°54.099 350.2 12.5 339 9.9
2005-10-03 08:42:50 51°15.603 2°54.086 349.8 12.5 339 9.9
2005-10-03 08:42:55 51°15.619 2°54.075 349.3 12.5 338 10
2005-10-03 08:43:00 51°15.635 2°54.064 348.9 12.5 336 10.1
2005-10-03 08:43:05 51°15.65 2°54.054 348.6 12.4 336 10.1
2005-10-03 08:43:10 51°15.666 2°54.042 348.3 12.3 335 10
2005-10-03 08:43:14 51°15.678 2°54.033 348.3 12.3 336 10.2
2005-10-03 08:43:20 51°15.697 2°54.02 348.8 12.3 336 10.3
2005-10-03 08:43:25 51°15.713 2°54.009 349 12.4 336 10.3
2005-10-03 08:43:30 51°15.728 2°53.999 349.2 12.2 337 10.2
2005-10-03 08:43:34 51°15.741 2°53.99 349.6 12.2 337 10.4
2005-10-03 08:43:40 51°15.76 2°53.977 349.8 12.3 337 10.5
2005-10-03 08:43:45 51°15.775 2°53.966 349.8 12.2 336 10.5
2005-10-03 08:43:50 51°15.791 2°53.954 349.7 12.3 335 10.5
2005-10-03 08:43:54 51°15.803 2°53.945 349.6 12.4 335 10.6
2005-10-03 08:44:00 51°15.822 2°53.932 348.8 12.4 335 10.5
2005-10-03 08:44:05 51°15.838 2°53.921 349.2 12.2 337 10.6
2005-10-03 08:44:10 51°15.854 2°53.911 350.5 12.2 339 10.8
2005-10-03 08:44:14 51°15.866 2°53.904 351.2 12.3 339 10.7
2005-10-03 08:44:20 51°15.885 2°53.891 351.2 12.3 339 10.9
2005-10-03 08:44:24 51°15.898 2°53.883 350.8 12.3 337 10.7
2005-10-03 08:44:30 51°15.917 2°53.869 349.8 12.4 336 10.7
2005-10-03 08:44:34 51°15.929 2°53.86 349.1 12.4 336 10.6
2005-10-03 08:44:40 51°15.948 2°53.847 348.9 12.4 336 10.8
2005-10-03 08:44:44 51°15.961 2°53.838 349.1 12.4 337 10.9
2005-10-03 08:44:50 51°15.98 2°53.825 349.5 12.3 337 10.8
2005-10-03 08:44:54 51°15.993 2°53.816 350.1 12.2 337 11.1
2005-10-03 08:45:00 51°16.011 2°53.804 350.3 12.3 337 11
2005-10-03 08:45:05 51°16.026 2°53.793 350.2 12.3 337 11
2005-10-03 08:45:10 51°16.042 2°53.782 349.8 12.3 336 11
2005-10-03 08:45:14 51°16.055 2°53.774 350 12.3 337 11.1
2005-10-03 08:45:20 51°16.074 2°53.76 350 12.3 337 11.3
2005-10-03 08:45:25 51°16.089 2°53.751 350.1 12.3 338 11.1
2005-10-03 08:45:30 51°16.106 2°53.741 351.3 12.3 338 11.2
2005-10-03 08:45:34 51°16.119 2°53.734 352 12.3 340 11.3
2005-10-03 08:45:40 51°16.138 2°53.722 352.7 12.2 339 11.3
2005-10-03 08:45:45 51°16.154 2°53.713 352.9 12.3 340 11.4
2005-10-03 08:45:50 51°16.169 2°53.704 353.1 12.2 340 11.3
2005-10-03 08:45:54 51°16.182 2°53.697 353.4 12.3 341 11.3
2005-10-03 08:46:00 51°16.202 2°53.686 353.4 12.1 341 11.3
2005-10-03 08:46:05 51°16.218 2°53.677 353.4 12.3 341 11.4
2005-10-03 08:46:10 51°16.234 2°53.668 353.4 12.3 340 11.4
2005-10-03 08:46:14 51°16.247 2°53.661 353.2 12.3 342 11.4
2005-10-03 08:46:20 51°16.266 2°53.652 353.4 12.2 343 11.3
2005-10-03 08:46:25 51°16.282 2°53.644 354 12.2 343 11.4
2005-10-03 08:46:30 51°16.299 2°53.636 353.5 12.2 343 11.5
2005-10-03 08:46:34 51°16.312 2°53.629 352.9 12.4 342 11.4
2005-10-03 08:46:40 51°16.331 2°53.618 352.3 12.2 341 11.4
2005-10-03 08:46:44 51°16.343 2°53.611 351.8 12.3 341 11.5
2005-10-03 08:46:50 51°16.362 2°53.601 351.7 12.3 341 11.6
2005-10-03 08:46:54 51°16.375 2°53.594 352 12.3 342 11.4
2005-10-03 08:47:00 51°16.395 2°53.583 352.3 12.2 342 11.6
2005-10-03 08:47:05 51°16.41 2°53.575 352.6 12.2 343 11.6
2005-10-03 08:47:10 51°16.426 2°53.567 352.6 12.2 342 11.6
2005-10-03 08:47:15 51°16.443 2°53.559 352.7 12.2 343 11.5
2005-10-03 08:47:20 51°16.459 2°53.55 352.7 12.2 342 11.6
2005-10-03 08:47:25 51°16.475 2°53.541 352.4 12.1 342 11.7
2005-10-03 08:47:30 51°16.49 2°53.533 351.9 12.1 342 11.4
2005-10-03 08:47:34 51°16.503 2°53.527 351.9 12 342 11.5
2005-10-03 08:47:40 51°16.523 2°53.517 351.9 12.1 342 11.5
2005-10-03 08:47:45 51°16.539 2°53.509 352 12.1 342 11.5
2005-10-03 08:47:50 51°16.555 2°53.501 352.1 12.1 342 11.5
2005-10-03 08:47:54 51°16.568 2°53.495 352.1 12.2 342 11.5
2005-10-03 08:48:00 51°16.587 2°53.485 352.4 12.1 343 11.4
2005-10-03 08:48:05 51°16.604 2°53.477 352.5 12.2 343 11.6
2005-10-03 08:48:10 51°16.62 2°53.469 352.4 12.3 342 11.4
2005-10-03 08:48:14 51°16.633 2°53.462 352 12.3 342 11.3
2005-10-03 08:48:20 51°16.652 2°53.452 351.9 12.3 342 11.3
2005-10-03 08:48:25 51°16.669 2°53.444 352 12.3 343 11.2
2005-10-03 08:48:30 51°16.685 2°53.435 351.8 12.3 342 11.2
2005-10-03 08:48:35 51°16.701 2°53.427 351.8 12.4 342 11.1
2005-10-03 08:48:40 51°16.717 2°53.419 351.8 12.3 342 11.1
2005-10-03 08:48:45 51°16.733 2°53.411 351.9 12.4 342 10.9
2005-10-03 08:48:50 51°16.75 2°53.403 352.1 12.3 343 10.9
2005-10-03 08:48:54 51°16.763 2°53.396 352.3 12.3 343 11
2005-10-03 08:49:00 51°16.782 2°53.387 352.4 12.4 343 10.8
2005-10-03 08:49:05 51°16.799 2°53.379 352.3 12.4 343 10.8
2005-10-03 08:49:10 51°16.815 2°53.37 352.1 12.3 342 10.7
2005-10-03 08:49:14 51°16.828 2°53.364 351.6 12.2 342 10.7
2005-10-03 08:49:20 51°16.848 2°53.354 351.7 12.3 342 10.5
2005-10-03 08:49:25 51°16.864 2°53.345 351.7 12.2 342 10.3
2005-10-03 08:49:30 51°16.881 2°53.338 352.1 12.2 344 9.9
2005-10-03 08:49:34 51°16.893 2°53.332 352.6 12.1 344 9.2
2005-10-03 08:49:40 51°16.912 2°53.322 352.5 12.1 343 8.5
2005-10-03 08:49:45 51°16.928 2°53.314 352.2 12 342 8.2
2005-10-03 08:49:50 51°16.943 2°53.307 352 11.9 342 7.9
2005-10-03 08:49:55 51°16.959 2°53.299 352.2 11.7 342 7.8
2005-10-03 08:50:00 51°16.974 2°53.291 352 11.6 342 7.8
2005-10-03 08:50:05 51°16.989 2°53.283 352.1 11.5 343 7.8
2005-10-03 08:50:10 51°17.005 2°53.277 352.7 11.7 344 7.7
2005-10-03 08:50:14 51°17.017 2°53.271 353.3 11.8 345 7.9
2005-10-03 08:50:20 51°17.036 2°53.264 354.7 11.7 347 8
2005-10-03 08:50:25 51°17.053 2°53.259 356.2 11.8 348 8
2005-10-03 08:50:30 51°17.069 2°53.254 357.6 11.8 349 8.2
2005-10-03 08:50:34 51°17.082 2°53.25 358.1 11.9 349 8.2
2005-10-03 08:50:40 51°17.102 2°53.245 358.7 11.9 350 8.3
2005-10-03 08:50:45 51°17.118 2°53.241 359.2 12 350 8.3
2005-10-03 08:50:50 51°17.134 2°53.235 359.2 12 349 8.5
2005-10-03 08:50:54 51°17.147 2°53.231 358.1 12.1 348 8.5
2005-10-03 08:51:00 51°17.167 2°53.224 357.4 12.2 348 8.5
2005-10-03 08:51:05 51°17.183 2°53.217 356.6 12.1 347 8.7
2005-10-03 08:51:10 51°17.2 2°53.211 355.9 12.2 346 8.8
2005-10-03 08:51:14 51°17.213 2°53.206 355.6 12.2 346 8.7
2005-10-03 08:51:20 51°17.232 2°53.198 355.3 12.2 345 8.8
2005-10-03 08:51:24 51°17.245 2°53.192 355 12.1 345 8.8
2005-10-03 08:51:30 51°17.265 2°53.185 355.7 12.1 346 8.9
2005-10-03 08:51:34 51°17.278 2°53.181 356.9 12.1 349 8.9
2005-10-03 08:51:40 51°17.298 2°53.177 357.9 12.1 350 8.9
2005-10-03 08:51:45 51°17.314 2°53.177 2.5 11.9 359 9.1
2005-10-03 08:51:50 51°17.331 2°53.18 7.6 11.8 2 9.1
2005-10-03 08:51:54 51°17.343 2°53.184 14.2 11.6 10 9
2005-10-03 08:52:00 51°17.361 2°53.194 20.9 11.6 16 9
2005-10-03 08:52:05 51°17.375 2°53.205 26.3 11.4 25 9.1
2005-10-03 08:52:10 51°17.39 2°53.218 31.2 11.4 28 9.1
2005-10-03 08:52:14 51°17.401 2°53.228 33.9 11.5 29 9.2
2005-10-03 08:52:20 51°17.417 2°53.244 36.1 11.4 32 9.1
2005-10-03 08:52:25 51°17.43 2°53.256 36.5 11.5 29 9.2
2005-10-03 08:52:30 51°17.444 2°53.268 35.7 11.6 29 9.3
2005-10-03 08:52:34 51°17.455 2°53.278 35.1 11.5 29 9.3
2005-10-03 08:52:40 51°17.473 2°53.292 33.8 11.5 28 9.4
2005-10-03 08:52:45 51°17.487 2°53.305 34.2 11.5 30 9.2
2005-10-03 08:52:50 51°17.501 2°53.318 35.7 11.6 30 9.3
2005-10-03 08:52:54 51°17.512 2°53.329 36.5 11.5 31 9.3
2005-10-03 08:53:00 51°17.528 2°53.346 38.2 11.5 33 9.9
2005-10-03 08:53:05 51°17.541 2°53.36 38.5 11.7 32 9.4
2005-10-03 08:53:10 51°17.555 2°53.375 38.9 11.7 35 9.5
2005-10-03 08:53:14 51°17.566 2°53.387 39.7 11.6 34 9.9
2005-10-03 08:53:20 51°17.581 2°53.404 39.9 11.6 36 9.4
2005-10-03 08:53:24 51°17.592 2°53.415 39.8 11.6 33 9.4
2005-10-03 08:53:30 51°17.607 2°53.432 39.9 11.6 35 9.3
2005-10-03 08:53:34 51°17.618 2°53.444 39.9 11.6 33 9.4
2005-10-03 08:53:40 51°17.634 2°53.461 39.5 11.6 34 9.4
2005-10-03 08:53:44 51°17.645 2°53.472 39.2 11.5 33 9.4
2005-10-03 08:53:50 51°17.661 2°53.49 38.9 11.6 34 9.5
2005-10-03 08:53:54 51°17.672 2°53.501 39.2 11.6 34 9.4
2005-10-03 08:54:00 51°17.687 2°53.518 39.5 11.5 33 9.3
2005-10-03 08:54:04 51°17.698 2°53.529 39.2 11.5 34 9.5
2005-10-03 08:54:10 51°17.714 2°53.546 39.2 11.5 33 9.4
2005-10-03 08:54:15 51°17.728 2°53.56 39.5 11.5 33 9.4
2005-10-03 08:54:20 51°17.741 2°53.575 39.1 11.5 35 9.6
2005-10-03 08:54:25 51°17.754 2°53.589 39.5 11.5 34 9.4
2005-10-03 08:54:30 51°17.768 2°53.603 39.2 11.5 34 9.4
2005-10-03 08:54:34 51°17.778 2°53.614 39.4 11.5 34 9.6
2005-10-03 08:54:40 51°17.794 2°53.631 39.3 11.4 34 9.7
2005-10-03 08:54:45 51°17.807 2°53.645 39.7 11.4 34 9.7
2005-10-03 08:54:50 51°17.82 2°53.658 38.5 11.4 32 9.6
2005-10-03 08:54:54 51°17.831 2°53.668 37.7 11.4 31 9.7
2005-10-03 08:55:00 51°17.848 2°53.682 36.6 11.4 31 9.5
2005-10-03 08:55:05 51°17.862 2°53.696 36.1 11.4 30 9.6
2005-10-03 08:55:10 51°17.875 2°53.708 35.7 11.4 29 9.7
2005-10-03 08:55:14 51°17.886 2°53.718 35.7 11.4 30 9.6
2005-10-03 08:55:20 51°17.904 2°53.733 35.5 11.4 29 9.7
2005-10-03 08:55:25 51°17.917 2°53.745 35.6 11.4 30 9.6
2005-10-03 08:55:30 51°17.931 2°53.757 36 11.4 30 9.6
2005-10-03 08:55:35 51°17.944 2°53.77 36 11.4 30 9.7
2005-10-03 08:55:40 51°17.958 2°53.782 36 11.4 30 9.7
2005-10-03 08:55:45 51°17.972 2°53.795 35.6 11.5 29 9.7
2005-10-03 08:55:50 51°17.986 2°53.807 36.3 11.4 29 9.9
2005-10-03 08:55:55 51°17.999 2°53.82 36 11.4 30 9.8
2005-10-03 08:56:00 51°18.013 2°53.832 36.2 11.4 30 9.7
2005-10-03 08:56:05 51°18.027 2°53.845 35.9 11.4 28 9.8
2005-10-03 08:56:10 51°18.041 2°53.856 35.9 11.4 28 9.6
2005-10-03 08:56:15 51°18.054 2°53.869 35.4 11.5 29 9.9
2005-10-03 08:56:20 51°18.068 2°53.882 35.4 11.3 27 9.8
2005-10-03 08:56:24 51°18.079 2°53.891 36.2 11.4 30 9.8
2005-10-03 08:56:30 51°18.096 2°53.907 36.2 11.5 29 9.7
2005-10-03 08:56:34 51°18.107 2°53.916 36.3 11.4 30 9.9
2005-10-03 08:56:40 51°18.123 2°53.931 36.4 11.4 30 9.9
2005-10-03 08:56:45 51°18.137 2°53.943 36.5 11.3 29 9.9
2005-10-03 08:56:50 51°18.151 2°53.955 35.8 11.4 29 10.1
2005-10-03 08:56:54 51°18.162 2°53.965 35.4 11.3 29 10
2005-10-03 08:57:00 51°18.178 2°53.98 35.5 11.3 29 10
2005-10-03 08:57:05 51°18.192 2°53.992 36 11.3 30 10
2005-10-03 08:57:10 51°18.206 2°54.004 36.1 11.3 29 10.1
2005-10-03 08:57:14 51°18.217 2°54.014 35.8 11.3 29 10
2005-10-03 08:57:20 51°18.234 2°54.029 36.2 11.3 29 10.1
2005-10-03 08:57:25 51°18.247 2°54.041 36.5 11.3 30 10.1
2005-10-03 08:57:30 51°18.26 2°54.053 36.8 11.4 30 10.1
2005-10-03 08:57:34 51°18.271 2°54.063 37 11.1 30 10
2005-10-03 08:57:40 51°18.288 2°54.079 37 11.1 31 10.4
2005-10-03 08:57:45 51°18.3 2°54.091 36.8 11.2 30 10.2
2005-10-03 08:57:50 51°18.314 2°54.103 36.6 11.2 29 10.2
2005-10-03 08:57:55 51°18.328 2°54.116 36.3 11.1 30 10.3
2005-10-03 08:58:00 51°18.342 2°54.128 35.8 11.3 28 10.4
2005-10-03 08:58:05 51°18.355 2°54.139 35.9 11.3 29 10.4
2005-10-03 08:58:10 51°18.369 2°54.151 35.5 11.2 28 10.3
2005-10-03 08:58:15 51°18.383 2°54.163 35.5 11.2 29 10.4
2005-10-03 08:58:20 51°18.396 2°54.174 35.6 11.4 28 10.5
2005-10-03 08:58:24 51°18.407 2°54.185 35.5 11.3 29 10.6
2005-10-03 08:58:30 51°18.424 2°54.199 35.7 11.3 30 10.4
2005-10-03 08:58:34 51°18.435 2°54.209 36.2 11.3 31 10.6
2005-10-03 08:58:40 51°18.451 2°54.224 37.4 11.3 31 10.7
2005-10-03 08:58:45 51°18.464 2°54.238 37.8 11.2 32 10.4
2005-10-03 08:58:50 51°18.477 2°54.251 38.5 11.2 33 10.6
2005-10-03 08:58:55 51°18.49 2°54.265 39.5 11.1 33 10.4
2005-10-03 08:59:00 51°18.504 2°54.279 39.7 11.3 33 10.6
2005-10-03 08:59:04 51°18.514 2°54.29 39.9 11.2 34 10.7
2005-10-03 08:59:10 51°18.529 2°54.305 40.1 11.3 34 10.6
2005-10-03 08:59:14 51°18.54 2°54.316 39.6 11.2 33 10.6
2005-10-03 08:59:20 51°18.555 2°54.332 39.5 11.2 33 10.7
2005-10-03 08:59:25 51°18.569 2°54.346 39.3 11.2 33 10.6
2005-10-03 08:59:30 51°18.582 2°54.359 39.2 11.3 32 10.8
2005-10-03 08:59:35 51°18.595 2°54.372 39 11.2 32 10.9
2005-10-03 08:59:40 51°18.608 2°54.384 38.9 11.1 31 10.8
2005-10-03 08:59:45 51°18.621 2°54.397 38.8 11.2 31 10.8
2005-10-03 08:59:50 51°18.635 2°54.411 38.9 11.1 33 10.7
2005-10-03 08:59:54 51°18.645 2°54.422 39.3 11.1 32 10.8
2005-10-03 09:00:00 51°18.661 2°54.437 39 11.2 32 10.8
2005-10-03 09:00:05 51°18.675 2°54.45 38.9 11.2 31 10.9
2005-10-03 09:00:10 51°18.688 2°54.463 38.9 11.3 31 11
2005-10-03 09:00:14 51°18.699 2°54.474 39.2 11.3 31 10.9
2005-10-03 09:00:20 51°18.714 2°54.489 39.1 11.3 32 10.8
2005-10-03 09:00:25 51°18.728 2°54.503 38.7 11.3 31 11
2005-10-03 09:00:30 51°18.741 2°54.516 38.8 11.2 32 11.1
2005-10-03 09:00:34 51°18.752 2°54.526 39.3 11.3 32 11
2005-10-03 09:00:40 51°18.768 2°54.541 39 11.3 31 11
2005-10-03 09:00:45 51°18.781 2°54.554 38.9 11.3 31 11.1
2005-10-03 09:00:50 51°18.794 2°54.568 38.9 11.2 32 11.2
2005-10-03 09:00:55 51°18.807 2°54.581 39.2 11.3 33 11.1
2005-10-03 09:01:00 51°18.82 2°54.594 39.9 11.3 32 11.1
2005-10-03 09:01:05 51°18.834 2°54.608 39.9 11.3 33 11.2
2005-10-03 09:01:10 51°18.847 2°54.622 40 11.2 32 11.1
2005-10-03 09:01:15 51°18.86 2°54.636 39.9 11.3 33 11.2
2005-10-03 09:01:20 51°18.873 2°54.649 40.4 11.3 33 11.1
2005-10-03 09:01:25 51°18.886 2°54.664 40.6 11.3 34 11.3
2005-10-03 09:01:30 51°18.899 2°54.677 40.9 11.4 34 11.2
2005-10-03 09:01:34 51°18.909 2°54.688 41.4 11.3 34 11
2005-10-03 09:01:40 51°18.925 2°54.707 41.8 11.2 35 11.2
2005-10-03 09:01:45 51°18.937 2°54.719 41.5 11.1 34 11.2
2005-10-03 09:01:50 51°18.95 2°54.734 41.4 11.2 34 11.2
2005-10-03 09:01:54 51°18.96 2°54.744 40.6 11.2 33 11.3
2005-10-03 09:02:00 51°18.976 2°54.761 40.6 11.2 34 11.3
2005-10-03 09:02:05 51°18.989 2°54.774 40.5 11.3 33 11.4
2005-10-03 09:02:10 51°19.002 2°54.788 40.9 11.2 35 11.2
2005-10-03 09:02:14 51°19.012 2°54.8 41.5 11.2 34 11.3
2005-10-03 09:02:20 51°19.028 2°54.816 41.8 11.2 34 11.4
2005-10-03 09:02:25 51°19.04 2°54.831 41.6 11.3 33 11.3
2005-10-03 09:02:30 51°19.054 2°54.844 40.9 11.3 33 11.4
2005-10-03 09:02:34 51°19.065 2°54.854 39.4 11.4 31 11.3
2005-10-03 09:02:40 51°19.081 2°54.87 38.8 11.3 32 11.5
2005-10-03 09:02:45 51°19.093 2°54.883 39.1 11.3 32 11.4
2005-10-03 09:02:50 51°19.107 2°54.897 40.2 11.3 33 11.5
2005-10-03 09:02:54 51°19.117 2°54.908 40.5 11.3 34 11.4
2005-10-03 09:03:00 51°19.132 2°54.926 41.5 11.3 34 11.4
2005-10-03 09:03:05 51°19.146 2°54.939 41.3 11.3 34 11.5
2005-10-03 09:03:10 51°19.159 2°54.953 40.7 11.3 34 11.5
2005-10-03 09:03:15 51°19.172 2°54.967 40.9 11.4 33 11.6
2005-10-03 09:03:20 51°19.185 2°54.981 41.1 11.3 34 11.7
2005-10-03 09:03:24 51°19.195 2°54.992 41.3 11.2 34 11.6
2005-10-03 09:03:30 51°19.211 2°55.007 40.5 11.3 34 11.6
2005-10-03 09:03:34 51°19.221 2°55.019 39.8 11.3 32 11.6
2005-10-03 09:03:40 51°19.238 2°55.034 39.3 11.3 32 11.7
2005-10-03 09:03:45 51°19.251 2°55.047 39 11.4 31 11.6
2005-10-03 09:03:50 51°19.264 2°55.059 38.4 11.4 30 11.7
2005-10-03 09:03:54 51°19.275 2°55.07 38.1 11.4 31 11.7
2005-10-03 09:04:00 51°19.292 2°55.085 38.2 11.5 31 11.6
2005-10-03 09:04:05 51°19.305 2°55.099 39.1 11.5 32 11.8
2005-10-03 09:04:10 51°19.317 2°55.112 39.4 11.4 33 11.6
2005-10-03 09:04:14 51°19.328 2°55.124 40.1 11.3 33 11.6
2005-10-03 09:04:20 51°19.343 2°55.142 41.3 11.3 36 11.7
2005-10-03 09:04:25 51°19.356 2°55.158 43.3 11.4 39 11.8
2005-10-03 09:04:30 51°19.367 2°55.176 46.8 11.3 44 11.7
2005-10-03 09:04:34 51°19.374 2°55.191 49.8 11.3 48 11.6
2005-10-03 09:04:40 51°19.386 2°55.215 55.3 11.3 51 11.7
2005-10-03 09:04:45 51°19.394 2°55.236 58.4 11.3 57 11.8
2005-10-03 09:04:50 51°19.402 2°55.258 60.9 11.4 59 11.8
2005-10-03 09:04:54 51°19.409 2°55.274 62.2 11.3 57 11.7
2005-10-03 09:05:00 51°19.418 2°55.301 63.1 11.4 60 11.7
2005-10-03 09:05:05 51°19.426 2°55.322 63.1 11.3 58 11.6
2005-10-03 09:05:10 51°19.434 2°55.344 62.6 11.4 61 11.7
2005-10-03 09:05:15 51°19.443 2°55.365 62.7 11.3 57 11.6
2005-10-03 09:05:20 51°19.45 2°55.386 62.6 11.4 59 11.6
2005-10-03 09:05:25 51°19.46 2°55.408 62.5 11.4 59 11.8
2005-10-03 09:05:30 51°19.468 2°55.429 61.6 11.4 58 11.7
2005-10-03 09:05:35 51°19.477 2°55.449 60.7 11.4 54 11.7
2005-10-03 09:05:40 51°19.485 2°55.47 59.9 11.4 57 11.6
2005-10-03 09:05:45 51°19.494 2°55.491 59.6 11.3 56 11.8
2005-10-03 09:05:50 51°19.503 2°55.512 59.4 11.4 56 11.6
2005-10-03 09:05:54 51°19.51 2°55.529 59.3 11.3 56 11.6
2005-10-03 09:06:00 51°19.521 2°55.553 60.5 11.3 58 11.7
2005-10-03 09:06:05 51°19.529 2°55.575 60.1 11.4 55 11.6
2005-10-03 09:06:10 51°19.538 2°55.596 60.8 11.4 58 11.6
2005-10-03 09:06:14 51°19.545 2°55.613 61.1 11.3 57 11.7
2005-10-03 09:06:20 51°19.554 2°55.638 61.4 11.4 59 11.6
2005-10-03 09:06:25 51°19.563 2°55.66 61.9 11.3 57 11.5
2005-10-03 09:06:30 51°19.572 2°55.681 61.5 11.3 56 11.6
2005-10-03 09:06:34 51°19.578 2°55.698 60.7 11.3 57 11.5
2005-10-03 09:06:40 51°19.589 2°55.723 60.9 11.3 57 11.6
2005-10-03 09:06:45 51°19.597 2°55.744 61.4 11.4 58 11.6
2005-10-03 09:06:50 51°19.605 2°55.766 62.4 11.4 59 11.5
2005-10-03 09:06:55 51°19.614 2°55.788 62.6 11.3 58 11.5
2005-10-03 09:07:00 51°19.623 2°55.808 60.9 11.3 55 11.6
2005-10-03 09:07:05 51°19.632 2°55.828 58.6 11.3 53 11.5
2005-10-03 09:07:10 51°19.642 2°55.848 56.8 11.3 51 11.5
2005-10-03 09:07:15 51°19.651 2°55.868 57 11.3 53 11.5
2005-10-03 09:07:20 51°19.661 2°55.889 57.9 11.4 54 11.5
2005-10-03 09:07:25 51°19.669 2°55.909 58.8 11.4 55 11.6
2005-10-03 09:07:30 51°19.678 2°55.93 59.5 11.4 55 11.5
2005-10-03 09:07:34 51°19.685 2°55.947 60.4 11.3 57 11.5
2005-10-03 09:07:40 51°19.695 2°55.972 60 11.4 55 11.5
2005-10-03 09:07:45 51°19.705 2°55.992 59.5 11.4 54 11.5
2005-10-03 09:07:50 51°19.714 2°56.013 58.7 11.4 55 11.5
2005-10-03 09:07:55 51°19.723 2°56.034 58.6 11.4 54 11.5
2005-10-03 09:08:00 51°19.732 2°56.054 58.6 11.4 54 11.4
2005-10-03 09:08:05 51°19.741 2°56.075 59 11.4 56 11.4
2005-10-03 09:08:10 51°19.75 2°56.095 59.8 11.4 56 11.5
2005-10-03 09:08:14 51°19.757 2°56.112 59.7 11.4 57 11.5
2005-10-03 09:08:20 51°19.769 2°56.136 59.4 11.4 55 11.5
2005-10-03 09:08:25 51°19.778 2°56.157 58.3 11.4 54 11.5
2005-10-03 09:08:30 51°19.787 2°56.178 58.4 11.3 54 11.6
2005-10-03 09:08:35 51°19.797 2°56.198 57.8 11.4 53 11.5
2005-10-03 09:08:40 51°19.806 2°56.217 57.5 11.5 52 11.5
2005-10-03 09:08:45 51°19.815 2°56.238 57 11.4 53 11.4
2005-10-03 09:08:50 51°19.825 2°56.259 56.7 11.4 52 11.5
2005-10-03 09:08:54 51°19.833 2°56.275 57.7 11.4 55 11.6
2005-10-03 09:09:00 51°19.843 2°56.299 58.9 11.3 55 11.4
2005-10-03 09:09:05 51°19.851 2°56.321 60.3 11.3 55 11.5
2005-10-03 09:09:10 51°19.861 2°56.341 60.6 11.4 55 11.5
2005-10-03 09:09:14 51°19.869 2°56.357 58.9 11.3 53 11.5
2005-10-03 09:09:20 51°19.88 2°56.382 58.5 11.3 55 11.6
2005-10-03 09:09:25 51°19.889 2°56.401 57.5 11.3 51 11.7
2005-10-03 09:09:30 51°19.899 2°56.421 56.6 11.4 52 11.6
2005-10-03 09:09:35 51°19.908 2°56.441 55.8 11.4 52 11.6
2005-10-03 09:09:40 51°19.917 2°56.463 57.9 11.3 57 11.6
2005-10-03 09:09:45 51°19.925 2°56.484 60.7 11.4 58 11.7
2005-10-03 09:09:50 51°19.933 2°56.506 62.8 11.3 60 11.6
2005-10-03 09:09:55 51°19.941 2°56.528 63.4 11.3 60 11.7
2005-10-03 09:10:00 51°19.949 2°56.549 62.2 11.3 57 11.7
2005-10-03 09:10:05 51°19.958 2°56.57 61.6 11.4 58 11.7
2005-10-03 09:10:10 51°19.967 2°56.591 60.2 11.4 55 11.6
2005-10-03 09:10:15 51°19.976 2°56.611 59.8 11.4 56 11.6
2005-10-03 09:10:20 51°19.985 2°56.632 59.6 11.3 55 11.6
2005-10-03 09:10:25 51°19.994 2°56.653 59.5 11.4 55 11.8
2005-10-03 09:10:30 51°20.003 2°56.674 59.7 11.4 55 11.7
2005-10-03 09:10:34 51°20.01 2°56.69 59.9 11.4 56 11.7
2005-10-03 09:10:40 51°20.02 2°56.716 60 11.3 56 11.7
2005-10-03 09:10:45 51°20.029 2°56.738 60.2 11.4 57 11.6
2005-10-03 09:10:50 51°20.037 2°56.758 60.6 11.3 58 11.7
2005-10-03 09:10:54 51°20.044 2°56.775 60.1 11.3 55 11.7
2005-10-03 09:11:00 51°20.055 2°56.799 58.7 11.4 54 11.6
2005-10-03 09:11:05 51°20.065 2°56.82 58.2 11.4 54 11.6
2005-10-03 09:11:10 51°20.074 2°56.84 57.6 11.4 54 11.7
2005-10-03 09:11:14 51°20.081 2°56.857 58.9 11.4 57 11.7
2005-10-03 09:11:20 51°20.091 2°56.883 60.6 11.4 57 11.7
2005-10-03 09:11:25 51°20.1 2°56.904 61.4 11.4 58 11.8
2005-10-03 09:11:30 51°20.108 2°56.926 62.2 11.4 59 11.7
2005-10-03 09:11:34 51°20.115 2°56.943 61.1 11.4 57 11.8
2005-10-03 09:11:40 51°20.126 2°56.967 58.6 11.4 53 11.7
2005-10-03 09:11:45 51°20.136 2°56.986 58 11.3 55 11.7
2005-10-03 09:11:50 51°20.145 2°57.007 56.9 11.4 54 11.7
2005-10-03 09:11:55 51°20.154 2°57.027 58 11.4 55 11.6
2005-10-03 09:12:00 51°20.163 2°57.048 58.9 11.4 55 11.7
2005-10-03 09:12:05 51°20.172 2°57.069 59.4 11.3 55 11.7
2005-10-03 09:12:10 51°20.181 2°57.09 59.9 11.3 56 11.7
2005-10-03 09:12:15 51°20.19 2°57.111 58.5 11.3 53 11.7
2005-10-03 09:12:20 51°20.2 2°57.13 58 11.4 55 11.7
2005-10-03 09:12:24 51°20.207 2°57.146 58.2 11.4 54 11.6
2005-10-03 09:12:30 51°20.219 2°57.171 58 11.3 54 11.8
2005-10-03 09:12:35 51°20.227 2°57.192 57.6 11.3 54 11.8
2005-10-03 09:12:40 51°20.238 2°57.212 57.3 11.4 52 11.8
2005-10-03 09:12:45 51°20.247 2°57.231 56.4 11.4 52 11.7
2005-10-03 09:12:50 51°20.257 2°57.252 55.8 11.4 52 11.8
2005-10-03 09:12:54 51°20.265 2°57.267 55.5 11.4 52 12
2005-10-03 09:13:00 51°20.276 2°57.291 55.3 11.3 50 11.8
2005-10-03 09:13:05 51°20.285 2°57.312 57.7 11.4 56 11.8
2005-10-03 09:13:10 51°20.294 2°57.332 59.1 11.4 55 11.8
2005-10-03 09:13:14 51°20.3 2°57.349 60.5 11.4 58 11.8
2005-10-03 09:13:20 51°20.311 2°57.375 60.9 11.4 57 11.9
2005-10-03 09:13:25 51°20.32 2°57.396 60.4 11.4 57 11.8
2005-10-03 09:13:30 51°20.329 2°57.417 59.6 11.4 57 11.8
2005-10-03 09:13:34 51°20.336 2°57.433 59.8 11.5 56 11.8
2005-10-03 09:13:40 51°20.346 2°57.459 59.1 11.5 56 11.8
2005-10-03 09:13:45 51°20.355 2°57.48 59.4 11.5 57 11.7
2005-10-03 09:13:50 51°20.365 2°57.501 59.3 11.5 57 11.8
2005-10-03 09:13:55 51°20.373 2°57.522 59.8 11.5 56 11.7
2005-10-03 09:14:00 51°20.382 2°57.543 60.2 11.4 57 11.7
2005-10-03 09:14:05 51°20.392 2°57.564 59.6 11.5 57 11.9
2005-10-03 09:14:10 51°20.4 2°57.585 58.7 11.5 57 11.9
2005-10-03 09:14:14 51°20.408 2°57.602 58.9 11.4 56 11.9
2005-10-03 09:14:20 51°20.418 2°57.628 59.5 11.4 57 11.8
2005-10-03 09:14:25 51°20.426 2°57.65 61.6 11.5 59 11.8
2005-10-03 09:14:30 51°20.434 2°57.671 61.8 11.5 58 11.8
2005-10-03 09:14:35 51°20.442 2°57.693 62.6 11.5 60 11.8
2005-10-03 09:14:40 51°20.451 2°57.714 62.2 11.6 57 11.9
2005-10-03 09:14:45 51°20.46 2°57.735 60.1 11.5 55 11.9
2005-10-03 09:14:50 51°20.469 2°57.756 59.6 11.5 56 11.8
2005-10-03 09:14:55 51°20.478 2°57.778 59.3 11.4 55 11.8
2005-10-03 09:15:00 51°20.488 2°57.798 59 11.5 56 11.9
2005-10-03 09:15:05 51°20.496 2°57.82 59.1 11.5 55 11.9
2005-10-03 09:15:10 51°20.505 2°57.841 61.3 11.6 58 11.9
2005-10-03 09:15:15 51°20.512 2°57.864 62.3 11.5 59 11.9
2005-10-03 09:15:20 51°20.521 2°57.885 62.8 11.6 58 11.8
2005-10-03 09:15:25 51°20.529 2°57.908 62.7 11.6 59 11.8
2005-10-03 09:15:30 51°20.538 2°57.929 61.8 11.6 56 11.9
2005-10-03 09:15:34 51°20.545 2°57.945 60 11.6 55 11.8
2005-10-03 09:15:40 51°20.556 2°57.971 58.8 11.6 55 11.8
2005-10-03 09:15:45 51°20.565 2°57.993 59.5 11.6 57 11.8
2005-10-03 09:15:50 51°20.574 2°58.014 60.7 11.6 57 11.9
2005-10-03 09:15:54 51°20.58 2°58.032 61.6 11.6 60 11.8
2005-10-03 09:16:00 51°20.59 2°58.058 62.8 11.6 60 11.8
2005-10-03 09:16:05 51°20.599 2°58.08 61.6 11.5 58 11.7
2005-10-03 09:16:10 51°20.607 2°58.102 61.7 11.5 58 11.7
2005-10-03 09:16:15 51°20.616 2°58.124 61.5 11.7 58 11.7
2005-10-03 09:16:20 51°20.624 2°58.146 61.7 11.6 58 11.7
2005-10-03 09:16:25 51°20.632 2°58.169 62.2 11.7 58 11.7
2005-10-03 09:16:30 51°20.641 2°58.191 63.2 11.7 58 11.7
2005-10-03 09:16:34 51°20.648 2°58.208 62.1 11.6 58 11.8
2005-10-03 09:16:40 51°20.658 2°58.234 61.8 11.7 58 11.8
2005-10-03 09:16:45 51°20.666 2°58.257 61.6 11.7 58 11.7
2005-10-03 09:16:50 51°20.675 2°58.278 62.3 11.7 57 11.7
2005-10-03 09:16:55 51°20.683 2°58.3 61.3 11.7 59 11.8
2005-10-03 09:17:00 51°20.692 2°58.322 61.3 11.7 57 11.8
2005-10-03 09:17:05 51°20.701 2°58.344 61.4 11.8 60 11.8
2005-10-03 09:17:10 51°20.709 2°58.367 61.8 11.8 58 11.7
2005-10-03 09:17:15 51°20.718 2°58.388 61.6 11.8 59 11.9
2005-10-03 09:17:20 51°20.727 2°58.41 61.1 11.7 57 11.6
2005-10-03 09:17:25 51°20.736 2°58.433 61.3 11.8 60 11.7
2005-10-03 09:17:30 51°20.744 2°58.454 61 11.8 56 11.7
2005-10-03 09:17:35 51°20.754 2°58.476 61.1 11.8 58 11.7
2005-10-03 09:17:40 51°20.762 2°58.498 61 11.8 57 11.7
2005-10-03 09:17:45 51°20.771 2°58.521 61.1 11.8 59 11.7
2005-10-03 09:17:50 51°20.779 2°58.543 61.4 11.8 58 11.6
2005-10-03 09:17:54 51°20.786 2°58.561 61.9 11.7 59 11.7
2005-10-03 09:18:00 51°20.797 2°58.587 61.2 11.7 57 11.6
2005-10-03 09:18:05 51°20.806 2°58.608 60.2 11.8 56 11.6
2005-10-03 09:18:10 51°20.815 2°58.631 59.9 11.7 57 11.7
2005-10-03 09:18:15 51°20.823 2°58.652 61.6 11.8 60 11.7
2005-10-03 09:18:20 51°20.832 2°58.675 62.4 11.8 59 11.6
2005-10-03 09:18:25 51°20.839 2°58.698 63.5 11.7 62 11.7
2005-10-03 09:18:30 51°20.846 2°58.721 65.6 11.8 64 11.7
2005-10-03 09:18:35 51°20.854 2°58.745 65.4 11.8 61 11.6
2005-10-03 09:18:40 51°20.861 2°58.768 66 11.7 64 11.6
2005-10-03 09:18:45 51°20.868 2°58.791 66.7 11.8 64 11.7
2005-10-03 09:18:50 51°20.875 2°58.814 66.5 11.8 64 11.6
2005-10-03 09:18:55 51°20.882 2°58.838 65.8 11.7 62 11.4
2005-10-03 09:19:00 51°20.891 2°58.861 65.6 11.8 61 11.4
2005-10-03 09:19:05 51°20.899 2°58.883 64.5 11.7 61 11.5
2005-10-03 09:19:10 51°20.907 2°58.906 63.9 11.7 61 11.5
2005-10-03 09:19:15 51°20.914 2°58.929 64.3 11.8 61 11.6
2005-10-03 09:19:20 51°20.922 2°58.952 65.2 11.7 63 11.6
2005-10-03 09:19:25 51°20.93 2°58.975 65.8 11.8 63 11.7
2005-10-03 09:19:30 51°20.937 2°58.999 66.2 11.8 63 11.5
2005-10-03 09:19:34 51°20.942 2°59.017 66.8 11.8 65 11.6
2005-10-03 09:19:40 51°20.951 2°59.046 66.7 11.8 64 11.6
2005-10-03 09:19:45 51°20.959 2°59.069 65.8 11.8 64 11.6
2005-10-03 09:19:50 51°20.966 2°59.091 64.9 11.7 62 11.5
2005-10-03 09:19:54 51°20.973 2°59.11 64.5 11.7 61 11.6
2005-10-03 09:20:00 51°20.982 2°59.137 64.9 11.8 63 11.6
2005-10-03 09:20:05 51°20.989 2°59.161 64.8 11.8 61 11.5
2005-10-03 09:20:10 51°20.997 2°59.184 66 11.8 62 11.6
2005-10-03 09:20:14 51°21.003 2°59.203 66 11.8 64 11.7
2005-10-03 09:20:20 51°21.012 2°59.23 65.7 11.8 63 11.4
2005-10-03 09:20:25 51°21.02 2°59.253 65.1 11.8 61 11.4
2005-10-03 09:20:30 51°21.028 2°59.276 64.2 11.7 60 11.4
2005-10-03 09:20:34 51°21.034 2°59.294 64.4 11.8 61 11.5
2005-10-03 09:20:40 51°21.043 2°59.322 65.3 11.9 63 11.6
2005-10-03 09:20:45 51°21.051 2°59.345 65.7 11.8 62 11.5
2005-10-03 09:20:50 51°21.058 2°59.368 65.8 11.8 63 11.6
2005-10-03 09:20:55 51°21.066 2°59.391 65.7 11.8 62 11.6
2005-10-03 09:21:00 51°21.074 2°59.415 64.8 11.9 61 11.4
2005-10-03 09:21:05 51°21.082 2°59.437 64.3 11.9 61 11.5
2005-10-03 09:21:10 51°21.09 2°59.461 64.6 11.8 63 11.5
2005-10-03 09:21:15 51°21.097 2°59.485 66 11.9 64 11.5
2005-10-03 09:21:20 51°21.104 2°59.508 67.4 11.9 65 11.5
2005-10-03 09:21:25 51°21.112 2°59.532 67.3 11.9 63 11.5
2005-10-03 09:21:30 51°21.119 2°59.555 66 11.9 63 11.5
2005-10-03 09:21:35 51°21.127 2°59.579 66 11.9 62 11.5
2005-10-03 09:21:40 51°21.135 2°59.602 66 11.9 63 11.5
2005-10-03 09:21:45 51°21.142 2°59.626 65.4 11.9 61 11.4
2005-10-03 09:21:50 51°21.15 2°59.649 65.4 11.9 62 11.5
2005-10-03 09:21:55 51°21.158 2°59.672 65.7 11.9 62 11.5
2005-10-03 09:22:00 51°21.165 2°59.696 66.1 12 63 11.4
2005-10-03 09:22:05 51°21.173 2°59.72 66.8 12 63 11.6
2005-10-03 09:22:10 51°21.18 2°59.743 66.5 11.9 61 11.5
2005-10-03 09:22:14 51°21.187 2°59.762 65.7 11.9 62 11.4
2005-10-03 09:22:20 51°21.198 2°59.788 63.1 11.9 58 11.5
2005-10-03 09:22:25 51°21.208 2°59.808 60.6 11.7 53 11.4
2005-10-03 09:22:30 51°21.219 2°59.827 57.5 11.7 49 11.5
2005-10-03 09:22:35 51°21.231 2°59.844 52.6 11.7 44 11.5
2005-10-03 09:22:40 51°21.244 2°59.859 47.2 11.6 39 11.5
2005-10-03 09:22:45 51°21.258 2°59.872 42 11.6 31 11.4
2005-10-03 09:22:50 51°21.272 2°59.884 36 11.6 29 11.5
2005-10-03 09:22:54 51°21.283 2°59.894 33.8 11.6 27 11.4
2005-10-03 09:23:00 51°21.301 2°59.907 34.1 11.6 27 11.6
2005-10-03 09:23:05 51°21.315 2°59.92 33.4 11.8 28 11.6
2005-10-03 09:23:10 51°21.329 2°59.932 34.4 11.8 29 11.5
2005-10-03 09:23:15 51°21.344 2°59.945 35.2 11.9 30 11.6
2005-10-03 09:23:20 51°21.357 2°59.959 36.2 11.8 30 11.2
2005-10-03 09:23:25 51°21.372 2°59.972 36.8 11.8 31 11.3
2005-10-03 09:23:30 51°21.386 2°59.985 36.7 11.8 30 11.4
2005-10-03 09:23:34 51°21.398 2°59.995 35.9 11.9 29 11.5
2005-10-03 09:23:40 51°21.415 3°0.011 35.2 11.9 29 11.4
2005-10-03 09:23:45 51°21.43 3°0.023 35.2 11.9 28 11.4
2005-10-03 09:23:50 51°21.444 3°0.037 35.2 11.9 30 11.6
2005-10-03 09:23:55 51°21.458 3°0.049 35.5 12 29 11.5
2005-10-03 09:24:00 51°21.473 3°0.063 35.9 11.9 30 11.6
2005-10-03 09:24:04 51°21.484 3°0.073 36.8 11.9 30 11.5
2005-10-03 09:24:10 51°21.501 3°0.089 35.9 11.9 29 11.5
2005-10-03 09:24:15 51°21.516 3°0.102 36.1 11.9 30 11.5
2005-10-03 09:24:20 51°21.53 3°0.116 36.4 12 31 11.6
2005-10-03 09:24:25 51°21.544 3°0.13 37.3 11.9 32 11.5
2005-10-03 09:24:30 51°21.558 3°0.143 38 11.9 31 11.6
2005-10-03 09:24:35 51°21.572 3°0.156 37 11.9 31 11.4
2005-10-03 09:24:40 51°21.588 3°0.169 35.2 11.9 28 11.5
2005-10-03 09:24:45 51°21.602 3°0.181 34.4 11.9 29 11.5
2005-10-03 09:24:50 51°21.616 3°0.193 33.8 12 28 11.5
2005-10-03 09:24:55 51°21.631 3°0.206 33.9 11.9 28 11.5
2005-10-03 09:25:00 51°21.645 3°0.218 34.1 11.9 28 11.5
2005-10-03 09:25:05 51°21.659 3°0.231 35 11.8 29 11.6
2005-10-03 09:25:10 51°21.673 3°0.246 35.5 11.7 31 11.2
2005-10-03 09:25:14 51°21.685 3°0.257 36.8 11.8 32 11.4
2005-10-03 09:25:20 51°21.701 3°0.273 37.7 11.8 31 11.4
2005-10-03 09:25:25 51°21.716 3°0.286 37.3 11.8 32 11.5
2005-10-03 09:25:30 51°21.73 3°0.3 36.4 11.9 31 11.4
2005-10-03 09:25:35 51°21.744 3°0.313 36.7 12 30 11.6
2005-10-03 09:25:40 51°21.759 3°0.327 36.5 12 31 11.5
2005-10-03 09:25:45 51°21.773 3°0.339 37 12 30 11.5
2005-10-03 09:25:50 51°21.787 3°0.354 36.7 11.9 31 11.6
2005-10-03 09:25:55 51°21.801 3°0.366 36.2 12 29 11.5
2005-10-03 09:26:00 51°21.816 3°0.38 35.6 12 30 11.5
2005-10-03 09:26:05 51°21.83 3°0.394 35.5 12 30 11.4
2005-10-03 09:26:10 51°21.845 3°0.407 35.7 12 30 11.4
2005-10-03 09:26:15 51°21.859 3°0.42 36.2 12 31 11.5
2005-10-03 09:26:20 51°21.874 3°0.432 35.5 12 29 11.5
2005-10-03 09:26:25 51°21.888 3°0.446 34.1 12.1 28 11.3
2005-10-03 09:26:30 51°21.904 3°0.458 34.1 12.1 27 11.4
2005-10-03 09:26:35 51°21.918 3°0.47 33.2 12.1 27 11.4
2005-10-03 09:26:40 51°21.933 3°0.482 33.6 12.1 27 11.3
2005-10-03 09:26:45 51°21.947 3°0.495 34.7 12.1 29 11.3
2005-10-03 09:26:50 51°21.962 3°0.509 35.9 12 30 11.2
2005-10-03 09:26:54 51°21.974 3°0.52 36.6 12 31 11.4
2005-10-03 09:27:00 51°21.991 3°0.536 36.8 11.9 29 11.4
2005-10-03 09:27:05 51°22.006 3°0.547 35.4 12 27 11.4
2005-10-03 09:27:10 51°22.02 3°0.559 33.7 11.9 27 11.3
2005-10-03 09:27:15 51°22.035 3°0.571 33.3 11.9 26 11.3
2005-10-03 09:27:20 51°22.05 3°0.583 34.1 12 28 11.4
2005-10-03 09:27:25 51°22.064 3°0.596 34.8 11.9 28 11.3
2005-10-03 09:27:30 51°22.078 3°0.611 36.2 11.8 32 11.3
2005-10-03 09:27:34 51°22.089 3°0.621 38 11.8 31 11.2
2005-10-03 09:27:40 51°22.107 3°0.637 37.3 11.9 30 11.3
2005-10-03 09:27:45 51°22.121 3°0.648 35.9 11.9 30 11.3
2005-10-03 09:27:50 51°22.136 3°0.661 34 11.9 28 11.2
2005-10-03 09:27:55 51°22.151 3°0.673 33.2 11.9 27 11.2
2005-10-03 09:28:00 51°22.165 3°0.686 33.6 11.9 29 11.2
2005-10-03 09:28:05 51°22.18 3°0.699 34.7 11.9 29 11.2
2005-10-03 09:28:10 51°22.194 3°0.711 35.2 12 29 11.4
2005-10-03 09:28:15 51°22.208 3°0.725 35.6 11.9 29 11.2
2005-10-03 09:28:20 51°22.223 3°0.737 35.9 11.9 30 11.4
2005-10-03 09:28:25 51°22.237 3°0.749 33.9 11.9 27 11.3
2005-10-03 09:28:30 51°22.252 3°0.761 33.5 11.9 26 11.2
2005-10-03 09:28:35 51°22.267 3°0.774 33.8 11.9 29 11.2
2005-10-03 09:28:40 51°22.282 3°0.787 34.4 11.9 29 11.3
2005-10-03 09:28:45 51°22.295 3°0.799 35.3 11.9 29 11.3
2005-10-03 09:28:50 51°22.31 3°0.813 35.9 11.8 30 11.2
2005-10-03 09:28:55 51°22.325 3°0.825 35.6 11.9 29 11.3
2005-10-03 09:29:00 51°22.339 3°0.839 34.8 11.9 30 11.2
2005-10-03 09:29:05 51°22.353 3°0.852 35.1 11.9 30 11.2
2005-10-03 09:29:10 51°22.368 3°0.864 35.3 12 29 11.2
2005-10-03 09:29:15 51°22.382 3°0.878 35.6 12 31 11.3
2005-10-03 09:29:20 51°22.396 3°0.891 35.5 11.9 29 11.2
2005-10-03 09:29:25 51°22.41 3°0.904 35.5 11.9 30 11.2
2005-10-03 09:29:30 51°22.425 3°0.918 35.5 12 30 11.1
2005-10-03 09:29:34 51°22.437 3°0.928 35.7 12 30 11.2
2005-10-03 09:29:40 51°22.453 3°0.944 36.2 12 31 11.2
2005-10-03 09:29:45 51°22.468 3°0.957 35.1 12 28 11.2
2005-10-03 09:29:50 51°22.482 3°0.971 35 12 30 11.4
2005-10-03 09:29:55 51°22.497 3°0.984 35.1 12 30 11
2005-10-03 09:30:00 51°22.511 3°0.997 35.5 12 30 11.3
2005-10-03 09:30:05 51°22.526 3°1.01 35.7 12 30 11.4
2005-10-03 09:30:10 51°22.54 3°1.023 34.1 12 28 11.2
2005-10-03 09:30:15 51°22.555 3°1.035 33.9 12 29 10.9
2005-10-03 09:30:20 51°22.569 3°1.049 34.2 12 28 11.1
2005-10-03 09:30:25 51°22.583 3°1.062 35.5 12 31 11.3
2005-10-03 09:30:30 51°22.597 3°1.076 36.6 12 32 11.2
2005-10-03 09:30:35 51°22.611 3°1.09 37.3 12 32 11.3
2005-10-03 09:30:40 51°22.626 3°1.104 36.2 12 30 11.2
2005-10-03 09:30:45 51°22.64 3°1.117 35.8 12.1 31 11.4
2005-10-03 09:30:50 51°22.655 3°1.131 35.8 12.1 31 11.6
2005-10-03 09:30:55 51°22.67 3°1.144 34.8 12.1 29 11.2
2005-10-03 09:31:00 51°22.684 3°1.158 34.6 12.2 30 11.5
2005-10-03 09:31:05 51°22.699 3°1.171 34.8 12.1 29 11.7
2005-10-03 09:31:10 51°22.714 3°1.184 35.2 12.2 31 12.1
2005-10-03 09:31:15 51°22.728 3°1.198 35.7 12.2 31 12
2005-10-03 09:31:20 51°22.742 3°1.211 35.9 12.2 30 11.9
2005-10-03 09:31:25 51°22.757 3°1.224 34.3 12 29 11.7
2005-10-03 09:31:30 51°22.772 3°1.236 34.1 12 29 11.8
2005-10-03 09:31:34 51°22.783 3°1.246 34 12 29 11.9
2005-10-03 09:31:40 51°22.8 3°1.262 34.1 12 29 12
2005-10-03 09:31:45 51°22.815 3°1.275 34.1 12 28 12.1
2005-10-03 09:31:50 51°22.829 3°1.289 34.5 12 30 12
2005-10-03 09:31:55 51°22.844 3°1.303 35.5 12.1 30 12.2
2005-10-03 09:32:00 51°22.858 3°1.317 36.8 12 32 12.2
2005-10-03 09:32:05 51°22.873 3°1.33 36.4 12 30 12.3
2005-10-03 09:32:10 51°22.887 3°1.343 35 12 29 12.3
2005-10-03 09:32:15 51°22.902 3°1.356 34.3 12 29 12.2
2005-10-03 09:32:20 51°22.916 3°1.37 34.3 12.1 30 12.3
2005-10-03 09:32:25 51°22.931 3°1.383 34.8 12.1 29 12.3
2005-10-03 09:32:30 51°22.945 3°1.396 35.2 12.1 30 12.2
2005-10-03 09:32:35 51°22.96 3°1.411 35.9 12.1 31 12.3
2005-10-03 09:32:40 51°22.974 3°1.424 36.2 12 31 11.9
2005-10-03 09:32:45 51°22.989 3°1.437 34.8 12 29 12
2005-10-03 09:32:50 51°23.003 3°1.45 34.6 12 30 12.4
2005-10-03 09:32:55 51°23.017 3°1.463 34.9 12.1 30 12.3
2005-10-03 09:33:00 51°23.032 3°1.476 35.1 12.1 30 12.1
2005-10-03 09:33:05 51°23.046 3°1.49 35.5 12.1 31 12.3
2005-10-03 09:33:10 51°23.061 3°1.503 34.8 12 30 12.4
2005-10-03 09:33:15 51°23.076 3°1.517 35.1 12 30 12.8
2005-10-03 09:33:20 51°23.089 3°1.53 35.1 12 30 12.3
2005-10-03 09:33:25 51°23.104 3°1.544 35.4 12.1 31 12.5
2005-10-03 09:33:30 51°23.118 3°1.558 36.3 12 32 12.7
2005-10-03 09:33:35 51°23.132 3°1.57 35.9 12 29 12.7
2005-10-03 09:33:40 51°23.147 3°1.585 35 12 31 12.7
2005-10-03 09:33:45 51°23.162 3°1.598 35 12 31 12.7
2005-10-03 09:33:50 51°23.175 3°1.611 35.2 12 31 12.5
2005-10-03 09:33:55 51°23.19 3°1.625 35.6 12 30 12.6
2005-10-03 09:34:00 51°23.205 3°1.639 35.3 11.9 30 12.5
2005-10-03 09:34:05 51°23.218 3°1.652 35.1 11.9 31 12.6
2005-10-03 09:34:10 51°23.233 3°1.666 35.5 11.9 30 12.7
2005-10-03 09:34:15 51°23.247 3°1.678 35.5 11.9 30 12.7
2005-10-03 09:34:20 51°23.262 3°1.692 35.4 12 30 12.9
2005-10-03 09:34:25 51°23.276 3°1.705 35.6 12 30 13.2
2005-10-03 09:34:30 51°23.29 3°1.719 36.2 12 31 13.2
2005-10-03 09:34:34 51°23.302 3°1.729 35.8 12 29 13.1
2005-10-03 09:34:40 51°23.319 3°1.745 34.8 12.1 29 12.9
2005-10-03 09:34:45 51°23.334 3°1.758 34.3 12 29 13.3
2005-10-03 09:34:50 51°23.348 3°1.771 35.2 11.9 31 13.2
2005-10-03 09:34:55 51°23.363 3°1.785 35.9 12 30 12.9
2005-10-03 09:35:00 51°23.376 3°1.799 36.4 12 32 13.2
2005-10-03 09:35:05 51°23.391 3°1.812 35.9 12 29 13.2
2005-10-03 09:35:10 51°23.405 3°1.826 35.5 12 32 13.3
2005-10-03 09:35:15 51°23.42 3°1.839 35.8 12 29 13.6
2005-10-03 09:35:20 51°23.434 3°1.853 35.9 12.1 32 13.5
2005-10-03 09:35:25 51°23.449 3°1.866 35.5 12.1 30 13.5
2005-10-03 09:35:30 51°23.463 3°1.88 35.7 12 32 13.6
2005-10-03 09:35:35 51°23.477 3°1.894 35.6 12.1 30 13.7
2005-10-03 09:35:40 51°23.492 3°1.907 35.2 12.1 31 13.6
2005-10-03 09:35:45 51°23.507 3°1.921 34.8 12.1 29 13.9
2005-10-03 09:35:50 51°23.521 3°1.933 34.5 12.1 29 13.7
2005-10-03 09:35:55 51°23.536 3°1.947 34.6 12 30 13.8
2005-10-03 09:36:00 51°23.55 3°1.96 35.2 12 30 13.8
2005-10-03 09:36:05 51°23.565 3°1.974 35.7 12 31 14.1
2005-10-03 09:36:10 51°23.579 3°1.988 36.7 12 32 14.1
2005-10-03 09:36:15 51°23.594 3°2.001 35.5 12 28 14.1
2005-10-03 09:36:20 51°23.608 3°2.014 34.8 12.1 30 14.3
2005-10-03 09:36:25 51°23.623 3°2.028 34.6 12 29 14.2
2005-10-03 09:36:30 51°23.637 3°2.041 34.8 12.1 29 14.3
2005-10-03 09:36:34 51°23.649 3°2.051 34.6 12.1 30 14.5
2005-10-03 09:36:40 51°23.667 3°2.067 34.5 12.1 29 14.5
2005-10-03 09:36:45 51°23.681 3°2.08 34.7 12.1 30 14.5
2005-10-03 09:36:50 51°23.696 3°2.094 35 12.1 30 14.5
2005-10-03 09:36:55 51°23.711 3°2.107 35.3 12.1 29 14.7
2005-10-03 09:37:00 51°23.725 3°2.121 34.9 12.1 31 14.9
2005-10-03 09:37:05 51°23.739 3°2.135 35.5 12.1 30 14.8
2005-10-03 09:37:10 51°23.753 3°2.148 35.9 12.1 32 14.9
2005-10-03 09:37:15 51°23.768 3°2.162 36.4 12.1 31 15
2005-10-03 09:37:20 51°23.782 3°2.176 36.5 12.1 31 15.1
2005-10-03 09:37:25 51°23.797 3°2.19 36.2 12.1 31 15.2
2005-10-03 09:37:30 51°23.811 3°2.204 36.2 12.1 31 15.1
2005-10-03 09:37:35 51°23.825 3°2.217 35.9 12.1 31 15.2
2005-10-03 09:37:40 51°23.84 3°2.231 36.2 12.1 31 15.3
2005-10-03 09:37:45 51°23.854 3°2.245 36.5 12.1 32 15.4
2005-10-03 09:37:50 51°23.868 3°2.259 37.1 12 31 15.3
2005-10-03 09:37:55 51°23.882 3°2.273 37 12 31 15.5
2005-10-03 09:38:00 51°23.897 3°2.286 36.1 12 29 15.5
2005-10-03 09:38:05 51°23.911 3°2.299 35.1 12 29 15.7
2005-10-03 09:38:10 51°23.926 3°2.312 34.6 12 29 15.6
2005-10-03 09:38:15 51°23.941 3°2.325 34.3 12 28 15.6
2005-10-03 09:38:20 51°23.955 3°2.338 34.8 12 30 15.8
2005-10-03 09:38:25 51°23.97 3°2.351 35.1 12.1 30 15.9
2005-10-03 09:38:30 51°23.984 3°2.365 35.7 12.1 30 15.8
2005-10-03 09:38:35 51°23.999 3°2.378 35.8 12.1 30 15.9
2005-10-03 09:38:40 51°24.014 3°2.391 34.7 12.1 29 16
2005-10-03 09:38:45 51°24.028 3°2.404 34.7 12.1 30 15.8
2005-10-03 09:38:50 51°24.042 3°2.418 34.7 12.1 30 15.8
2005-10-03 09:38:54 51°24.054 3°2.429 35.9 12.2 32 15.9
2005-10-03 09:39:00 51°24.071 3°2.446 36.6 12.2 31 15.8
2005-10-03 09:39:05 51°24.086 3°2.46 36.7 12.1 32 15.8
2005-10-03 09:39:10 51°24.1 3°2.474 36.1 12.1 30 15.9
2005-10-03 09:39:15 51°24.115 3°2.488 35.5 12.1 30 15.8
2005-10-03 09:39:20 51°24.129 3°2.502 35.8 12.2 30 15.9
2005-10-03 09:39:25 51°24.144 3°2.516 35.8 12.1 31 15.9
2005-10-03 09:39:30 51°24.158 3°2.53 37 12.1 32 15.8
2005-10-03 09:39:35 51°24.172 3°2.545 36.4 12.2 30 15.9
2005-10-03 09:39:40 51°24.186 3°2.559 36.9 12.2 30 15.9
2005-10-03 09:39:45 51°24.201 3°2.574 37 12.1 32 16
2005-10-03 09:39:50 51°24.215 3°2.588 37.3 12.1 32 16
2005-10-03 09:39:55 51°24.23 3°2.601 36.1 12 31 16.1
2005-10-03 09:40:00 51°24.244 3°2.615 36.1 12 32 15.9
2005-10-03 09:40:05 51°24.258 3°2.628 35.7 12 30 15.9
2005-10-03 09:40:10 51°24.273 3°2.642 35.3 12.1 30 16.1
2005-10-03 09:40:14 51°24.284 3°2.653 35.5 12.1 31 16.1
2005-10-03 09:40:20 51°24.301 3°2.668 34.8 12 29 16
2005-10-03 09:40:25 51°24.316 3°2.682 34.8 12 30 16
2005-10-03 09:40:30 51°24.331 3°2.695 34.8 12 29 16.2
2005-10-03 09:40:34 51°24.342 3°2.706 34.6 12.1 30 16.4
2005-10-03 09:40:40 51°24.36 3°2.721 34.3 12.1 29 16.6
2005-10-03 09:40:45 51°24.374 3°2.734 34.6 12.1 30 17
2005-10-03 09:40:50 51°24.389 3°2.747 34.1 12.1 28 17.5
2005-10-03 09:40:55 51°24.404 3°2.759 33.9 12.1 29 17.8
2005-10-03 09:41:00 51°24.419 3°2.772 34 12.2 28 18.2
2005-10-03 09:41:05 51°24.434 3°2.786 33.9 12.1 29 18.7
2005-10-03 09:41:10 51°24.448 3°2.798 34 12.2 28 19.2
2005-10-03 09:41:15 51°24.463 3°2.811 34.1 12.1 29 19.3
2005-10-03 09:41:20 51°24.478 3°2.825 34.5 12 29 19.4
2005-10-03 09:41:25 51°24.492 3°2.838 34.8 12.1 30 19.4
2005-10-03 09:41:30 51°24.507 3°2.852 35.4 12.1 30 19.7
2005-10-03 09:41:35 51°24.521 3°2.866 35.8 12.1 31 19.8
2005-10-03 09:41:40 51°24.536 3°2.88 35.7 12.1 30 19.9
2005-10-03 09:41:45 51°24.55 3°2.894 35.7 12.2 31 19.8
2005-10-03 09:41:50 51°24.565 3°2.908 35.5 12.2 31 19.8
2005-10-03 09:41:55 51°24.579 3°2.921 35.6 12.2 30 19.8
2005-10-03 09:42:00 51°24.594 3°2.934 35.1 12.2 30 19.6
2005-10-03 09:42:05 51°24.609 3°2.948 35 12.2 30 19.7
2005-10-03 09:42:10 51°24.624 3°2.961 34.9 12.2 30 19.7
2005-10-03 09:42:15 51°24.639 3°2.975 34.7 12.1 29 19.6
2005-10-03 09:42:20 51°24.653 3°2.987 34.4 12.1 29 19.5
2005-10-03 09:42:25 51°24.668 3°3.001 34.1 12.1 29 19.3
2005-10-03 09:42:30 51°24.682 3°3.014 34.3 12 29 18.9
2005-10-03 09:42:34 51°24.694 3°3.024 34.5 12 30 19
2005-10-03 09:42:40 51°24.711 3°3.04 34.8 12 30 18.6
2005-10-03 09:42:45 51°24.726 3°3.054 34.6 12.1 30 18.5
2005-10-03 09:42:50 51°24.74 3°3.066 34.5 12 29 18.3
2005-10-03 09:42:55 51°24.755 3°3.08 34.7 12 31 18
2005-10-03 09:43:00 51°24.769 3°3.093 34.6 12 29 17.7
2005-10-03 09:43:05 51°24.784 3°3.106 34.5 12 31 17.3
2005-10-03 09:43:10 51°24.798 3°3.12 34.7 12 30 17
2005-10-03 09:43:15 51°24.812 3°3.133 35.3 12 32 16.7
2005-10-03 09:43:20 51°24.826 3°3.147 35.8 11.9 31 16
2005-10-03 09:43:25 51°24.84 3°3.161 36.4 11.9 31 15.8
2005-10-03 09:43:30 51°24.854 3°3.175 36.7 12 33 15.6
2005-10-03 09:43:35 51°24.869 3°3.189 36.2 12 31 15.4
2005-10-03 09:43:40 51°24.882 3°3.203 35.8 11.8 32 15.2
2005-10-03 09:43:45 51°24.897 3°3.217 36 11.9 32 15
2005-10-03 09:43:50 51°24.91 3°3.23 36 11.9 32 14.8
2005-10-03 09:43:54 51°24.922 3°3.241 35.5 11.8 31 14.8
2005-10-03 09:44:00 51°24.938 3°3.257 35.5 11.8 32 14.6
2005-10-03 09:44:05 51°24.953 3°3.271 35.8 11.9 31 14.6
2005-10-03 09:44:10 51°24.967 3°3.285 35.3 11.9 32 14.6
2005-10-03 09:44:15 51°24.981 3°3.299 35.5 11.8 31 14.7
2005-10-03 09:44:20 51°24.995 3°3.312 35.7 11.8 31 14.7
2005-10-03 09:44:25 51°25.009 3°3.326 35.6 12.3 33 14.8
2005-10-03 09:44:30 51°25.023 3°3.34 35.3 12 31 14.9
2005-10-03 09:44:35 51°25.037 3°3.354 35.3 11.9 31 14.5
2005-10-03 09:44:40 51°25.051 3°3.367 35 11.8 30 14.3
2005-10-03 09:44:45 51°25.065 3°3.381 35.4 11.9 32 14.4
2005-10-03 09:44:50 51°25.079 3°3.395 35.2 11.8 30 14.2
2005-10-03 09:44:55 51°25.093 3°3.408 35.5 11.9 33 14.2
2005-10-03 09:45:00 51°25.107 3°3.421 35.1 11.9 33 14.3
2005-10-03 09:45:05 51°25.121 3°3.435 35.5 11.8 32 14.3
2005-10-03 09:45:10 51°25.135 3°3.449 35.6 11.8 31 14.4
2005-10-03 09:45:15 51°25.149 3°3.463 35.9 11.9 33 14.4
2005-10-03 09:45:20 51°25.163 3°3.476 36.1 11.8 31 14.3
2005-10-03 09:45:25 51°25.177 3°3.49 36.1 11.8 32 14.3
2005-10-03 09:45:30 51°25.191 3°3.504 36.1 11.8 32 14
2005-10-03 09:45:35 51°25.205 3°3.518 35.8 11.9 32 14.1
2005-10-03 09:45:40 51°25.219 3°3.532 35.4 11.8 31 13.9
2005-10-03 09:45:45 51°25.233 3°3.545 35.4 11.8 32 13.8
2005-10-03 09:45:50 51°25.247 3°3.559 35.3 11.8 31 13.6
2005-10-03 09:45:55 51°25.261 3°3.573 35.1 11.7 32 13.6
2005-10-03 09:46:00 51°25.275 3°3.587 35.4 11.8 32 13.4
2005-10-03 09:46:05 51°25.288 3°3.602 36.7 11.8 33 13.3
2005-10-03 09:46:10 51°25.301 3°3.618 38.8 11.7 38 13.2
2005-10-03 09:46:15 51°25.313 3°3.635 41.5 11.8 41 13.1
2005-10-03 09:46:20 51°25.325 3°3.653 43.9 11.7 42 13
2005-10-03 09:46:25 51°25.336 3°3.672 46.4 11.8 45 13
2005-10-03 09:46:30 51°25.347 3°3.692 48.7 11.7 49 12.9
2005-10-03 09:46:35 51°25.357 3°3.713 51.6 11.7 52 12.8
2005-10-03 09:46:40 51°25.366 3°3.734 54.1 11.8 54 12.7
2005-10-03 09:46:45 51°25.374 3°3.756 56.3 11.8 56 12.5
2005-10-03 09:46:50 51°25.383 3°3.779 59 11.9 60 12.4
2005-10-03 09:46:55 51°25.391 3°3.803 61.1 11.9 61 12.4
2005-10-03 09:47:00 51°25.398 3°3.826 62.3 11.9 62 12.5
2005-10-03 09:47:05 51°25.406 3°3.85 63.7 11.8 63 12.5
2005-10-03 09:47:10 51°25.413 3°3.873 63.9 11.9 64 12.5
2005-10-03 09:47:15 51°25.419 3°3.897 64.7 12.1 66 12.6
2005-10-03 09:47:20 51°25.426 3°3.921 64.8 11.8 64 12.6
2005-10-03 09:47:25 51°25.434 3°3.944 64.9 11.8 65 12.5
2005-10-03 09:47:30 51°25.441 3°3.968 64 11.7 63 12.5
2005-10-03 09:47:34 51°25.446 3°3.987 64.5 11.8 65 12.3
2005-10-03 09:47:40 51°25.455 3°4.015 63.2 11.9 62 12.3